Time;durP1;ratioP1;P1;durP2;ratioP2;P2;SDS_P1;SDS_P2;PMS_P1;PMS_P2;Temp;Humidity;BMP_temperature;BMP_pressure;BME280_temperature;BME280_humidity;BME280_pressure;Samples;Min_cycle;Max_cycle;Signal;HPM_P1;HPM_P2
2023/04/07 00:01:32;;;;;;;13.83;10.00;;;;;;;6.89;59.09;96681.09;5088696;28;20196;-83
2023/04/07 00:04:00;;;;;;;11.97;9.50;;;;;;;6.77;59.60;96671.25;5088886;28;20629;-83
2023/04/07 00:06:27;;;;;;;12.63;9.20;;;;;;;6.77;60.01;96680.69;5089624;28;20613;-78
2023/04/07 00:08:54;;;;;;;12.53;9.10;;;;;;;6.76;58.59;96677.28;5089166;28;20240;-80
2023/04/07 00:11:21;;;;;;;12.10;9.37;;;;;;;6.76;58.75;96682.44;5088025;28;20199;-81
2023/04/07 00:13:48;;;;;;;11.30;9.27;;;;;;;6.79;59.13;96674.59;5088760;28;20223;-76
2023/04/07 00:16:15;;;;;;;14.07;9.17;;;;;;;6.67;58.52;96661.34;5070523;28;20641;-79
2023/04/07 00:18:42;;;;;;;11.47;9.03;;;;;;;6.73;58.08;96671.41;5088204;28;20189;-84
2023/04/07 00:21:10;;;;;;;11.23;8.30;;;;;;;6.68;58.39;96671.56;5088057;28;20237;-80
2023/04/07 00:23:37;;;;;;;12.40;8.47;;;;;;;6.83;57.86;96677.91;5088036;28;20202;-82
2023/04/07 00:26:04;;;;;;;11.40;8.80;;;;;;;6.84;57.71;96664.16;5070234;28;20210;-81
2023/04/07 00:28:31;;;;;;;12.67;8.83;;;;;;;6.77;57.46;96673.81;5087825;28;20209;-82
2023/04/07 00:30:58;;;;;;;10.47;8.93;;;;;;;6.87;57.90;96669.16;5068662;28;20311;-82
2023/04/07 00:33:25;;;;;;;12.93;9.30;;;;;;;6.92;57.35;96669.84;5076687;28;20253;-77
2023/04/07 00:35:53;;;;;;;9.90;8.60;;;;;;;6.89;57.73;96667.38;5067636;28;20224;-85
2023/04/07 00:38:20;;;;;;;13.07;9.27;;;;;;;6.83;57.15;96673.59;5086574;28;20203;-79
2023/04/07 00:40:47;;;;;;;13.67;9.50;;;;;;;6.88;57.83;96673.44;5091318;28;20653;-76
2023/04/07 00:43:14;;;;;;;13.03;9.57;;;;;;;6.93;58.00;96668.94;5071605;28;20207;-78
2023/04/07 00:45:41;;;;;;;14.33;10.10;;;;;;;6.74;58.31;96683.41;5067167;28;20195;-82
2023/04/07 00:48:09;;;;;;;13.67;10.07;;;;;;;6.82;57.38;96674.47;5053104;28;20203;-82
2023/04/07 00:50:36;;;;;;;13.50;9.43;;;;;;;6.77;58.51;96678.97;5087513;28;20189;-78
2023/04/07 00:53:04;;;;;;;12.00;8.77;;;;;;;6.76;57.43;96676.47;5069618;28;20184;-80
2023/04/07 00:55:31;;;;;;;11.23;9.20;;;;;;;6.85;56.54;96683.81;5087621;28;20315;-84
2023/04/07 00:57:58;;;;;;;10.53;8.50;;;;;;;6.75;56.68;96679.91;5069164;28;20202;-84
2023/04/07 01:00:26;;;;;;;11.60;9.20;;;;;;;6.65;57.05;96670.84;5088832;28;20192;-77
2023/04/07 01:03:00;;;;;;;13.57;9.27;;;;;;;6.72;56.81;96680.03;5056656;28;20298;-84
2023/04/07 01:05:42;;;;;;;12.60;9.40;;;;;;;6.81;57.33;96657.38;5050215;28;20195;-77
2023/04/07 01:08:19;;;;;;;10.50;8.60;;;;;;;6.91;56.84;96676.72;5067399;28;20273;-81
2023/04/07 01:11:12;;;;;;;11.53;9.53;;;;;;;6.82;56.61;96671.09;5049056;28;20274;-81
2023/04/07 01:13:47;;;;;;;13.53;9.43;;;;;;;7.00;55.66;96681.53;5049317;28;20192;-84
2023/04/07 01:16:31;;;;;;;10.90;8.53;;;;;;;6.82;55.88;96676.25;5048815;28;20185;-75
2023/04/07 01:19:39;;;;;;;12.93;9.20;;;;;;;6.87;55.73;96677.72;5049216;28;20195;-77
2023/04/07 01:22:16;;;;;;;12.73;8.60;;;;;;;7.03;56.62;96671.09;5011235;28;20242;-73
2023/04/07 01:25:22;;;;;;;11.77;9.67;;;;;;;6.83;56.08;96665.03;5026815;28;20190;-79
2023/04/07 01:28:20;;;;;;;13.60;10.27;;;;;;;7.17;55.81;96679.16;5038529;28;21091;-76
2023/04/07 01:30:49;;;;;;;12.53;9.40;;;;;;;7.19;56.43;96681.69;5045796;28;20186;-78
2023/04/07 01:33:19;;;;;;;13.10;9.73;;;;;;;7.11;57.20;96669.09;5046646;28;20189;-79
2023/04/07 01:35:47;;;;;;;13.20;9.47;;;;;;;7.18;56.88;96680.84;5047767;28;20247;-80
2023/04/07 01:38:16;;;;;;;15.30;10.30;;;;;;;7.01;57.32;96678.06;5046532;28;20202;-81
2023/04/07 01:40:46;;;;;;;12.87;9.53;;;;;;;7.01;56.10;96672.06;5045385;28;20224;-80
2023/04/07 01:43:14;;;;;;;13.07;9.57;;;;;;;6.89;56.76;96669.94;5045347;28;20618;-82
2023/04/07 01:45:42;;;;;;;12.30;8.93;;;;;;;7.03;56.18;96676.25;5046471;28;20212;-79
2023/04/07 01:48:11;;;;;;;12.63;9.07;;;;;;;7.02;54.64;96673.75;5045201;28;20190;-79
2023/04/07 01:50:38;;;;;;;11.20;9.10;;;;;;;6.85;56.84;96668.38;5046159;28;20669;-84
2023/04/07 01:53:07;;;;;;;9.97;8.43;;;;;;;6.76;57.05;96681.59;5047248;28;20822;-80
2023/04/07 01:55:34;;;;;;;11.43;8.83;;;;;;;6.64;57.70;96682.88;5046215;28;20641;-83
2023/04/07 01:58:06;;;;;;;10.83;8.83;;;;;;;6.69;58.66;96657.00;5045171;28;20614;-82
2023/04/07 02:00:35;;;;;;;14.90;9.87;;;;;;;6.51;58.93;96674.75;5046395;28;20201;-79
2023/04/07 02:03:19;;;;;;;13.20;10.83;;;;;;;6.35;58.62;96629.91;5044985;28;20200;-79
2023/04/07 02:05:51;;;;;;;12.03;9.17;;;;;;;6.58;58.00;96678.78;5046281;28;20207;-82
2023/04/07 02:08:23;;;;;;;12.87;9.43;;;;;;;6.75;57.81;96669.63;5044842;28;20549;-80
2023/04/07 02:10:51;;;;;;;11.17;9.27;;;;;;;6.81;57.11;96675.38;5042643;28;20208;-82
2023/04/07 02:13:19;;;;;;;11.60;9.27;;;;;;;6.84;57.58;96662.41;5041474;28;20223;-81
2023/04/07 02:15:49;;;;;;;13.10;9.83;;;;;;;6.71;57.07;96678.34;5028249;28;20288;-82
2023/04/07 02:18:19;;;;;;;14.30;9.67;;;;;;;6.87;57.67;96680.31;5071333;28;20203;-85
2023/04/07 02:20:47;;;;;;;13.43;8.83;;;;;;;6.81;56.59;96667.66;5034152;28;20229;-80
2023/04/07 02:23:15;;;;;;;14.80;9.00;;;;;;;6.88;56.19;96669.13;5070536;28;20645;-82
2023/04/07 02:25:42;;;;;;;12.27;8.93;;;;;;;6.70;56.50;96668.97;5051895;28;20200;-77
2023/04/07 02:28:09;;;;;;;10.50;8.57;;;;;;;6.58;57.01;96667.66;5070583;28;20630;-84
2023/04/07 02:30:36;;;;;;;12.53;9.30;;;;;;;6.54;57.52;96678.97;5052251;28;20641;-83
2023/04/07 02:33:03;;;;;;;12.60;9.50;;;;;;;6.50;57.12;96675.66;5068240;28;21723;-72
2023/04/07 02:35:30;;;;;;;12.03;9.30;;;;;;;6.31;57.20;96679.75;5090467;28;20747;-81
2023/04/07 02:37:57;;;;;;;10.83;8.77;;;;;;;6.24;58.11;96647.47;5071862;28;20214;-80
2023/04/07 02:40:24;;;;;;;13.30;9.27;;;;;;;6.40;58.49;96684.59;5090445;28;20202;-83
2023/04/07 02:42:52;;;;;;;12.67;8.67;;;;;;;6.50;57.28;96665.38;5073166;28;20242;-83
2023/04/07 02:45:22;;;;;;;12.67;9.20;;;;;;;6.58;58.01;96694.22;5091551;28;20182;-75
2023/04/07 02:47:49;;;;;;;13.50;9.30;;;;;;;6.40;57.77;96679.47;5090452;28;20188;-79
2023/04/07 02:50:17;;;;;;;11.27;9.10;;;;;;;6.22;57.68;96685.22;5089983;28;20246;-83
2023/04/07 02:52:44;;;;;;;12.33;8.67;;;;;;;6.31;58.37;96687.47;5071802;28;20564;-84
2023/04/07 02:55:13;;;;;;;12.20;9.80;;;;;;;6.46;57.75;96683.53;5071606;28;20214;-82
2023/04/07 02:57:40;;;;;;;12.97;9.10;;;;;;;6.31;58.44;96669.47;5073822;28;20229;-80
2023/04/07 03:00:15;;;;;;;15.30;9.70;;;;;;;5.70;58.40;96597.94;5072205;28;20614;-82
2023/04/07 03:03:08;;;;;;;13.13;9.30;;;;;;;6.21;58.81;96675.84;5087395;28;20219;-82
2023/04/07 03:05:38;;;;;;;13.93;9.73;;;;;;;6.07;59.62;96677.19;5090368;28;20355;-82
2023/04/07 03:08:07;;;;;;;13.90;9.67;;;;;;;6.13;59.37;96675.25;5071951;28;20799;-84
2023/04/07 03:10:35;;;;;;;12.07;9.40;;;;;;;6.49;59.61;96689.41;5072283;28;20197;-82
2023/04/07 03:13:02;;;;;;;14.07;10.60;;;;;;;6.50;59.51;96680.81;5071803;28;20267;-86
2023/04/07 03:15:32;;;;;;;16.40;10.90;;;;;;;6.61;59.91;96693.28;5055173;28;20226;-83
2023/04/07 03:17:59;;;;;;;13.10;9.70;;;;;;;6.62;59.99;96696.69;5085541;28;20199;-82
2023/04/07 03:20:27;;;;;;;17.47;10.17;;;;;;;6.68;60.21;96704.22;5068249;28;20205;-82
2023/04/07 03:22:57;;;;;;;15.53;10.50;;;;;;;6.53;61.09;96703.00;5070933;28;20269;-83
2023/04/07 03:25:27;;;;;;;13.87;10.27;;;;;;;6.67;61.50;96705.09;5066161;28;20606;-84
2023/04/07 03:27:55;;;;;;;14.20;10.37;;;;;;;6.68;60.59;96705.03;5059684;28;20659;-84
2023/04/07 03:30:24;;;;;;;13.60;10.67;;;;;;;6.67;62.06;96695.66;5088932;28;20194;-83
2023/04/07 03:32:51;;;;;;;15.27;10.33;;;;;;;6.77;61.74;96703.84;5070838;28;20214;-79
2023/04/07 03:35:18;;;;;;;14.13;10.50;;;;;;;6.71;62.16;96709.22;5071166;28;20305;-84
2023/04/07 03:37:45;;;;;;;13.83;10.20;;;;;;;6.69;63.29;96705.88;5071136;28;20191;-79
2023/04/07 03:40:16;;;;;;;12.97;10.23;;;;;;;6.81;61.68;96713.16;5066921;28;20748;-82
2023/04/07 03:42:45;;;;;;;15.53;11.77;;;;;;;6.81;61.76;96701.13;5065672;28;20188;-80
2023/04/07 03:45:13;;;;;;;15.23;11.67;;;;;;;6.81;61.52;96720.88;5089786;28;20236;-82
2023/04/07 03:47:45;;;;;;;18.03;12.37;;;;;;;6.77;60.91;96711.56;5071639;28;20649;-83
2023/04/07 03:50:12;;;;;;;17.87;12.67;;;;;;;6.80;60.86;96716.63;5089889;28;20616;-78
2023/04/07 03:52:50;;;;;;;18.60;12.93;;;;;;;5.95;60.44;96624.50;5057750;28;20730;-81
2023/04/07 03:55:27;;;;;;;18.67;13.67;;;;;;;6.55;59.21;96726.94;5070064;28;20219;-74
2023/04/07 03:57:59;;;;;;;15.63;11.87;;;;;;;6.53;59.36;96721.03;5071184;28;20198;-82
2023/04/07 04:00:32;;;;;;;16.53;11.13;;;;;;;6.51;58.59;96728.78;5063332;28;20247;-84
2023/04/07 04:03:10;;;;;;;14.97;10.67;;;;;;;6.43;59.40;96733.34;5060776;28;20192;-76
2023/04/07 04:05:50;;;;;;;17.43;11.43;;;;;;;6.27;59.09;96729.63;5068840;28;20226;-81
2023/04/07 04:08:22;;;;;;;14.87;10.90;;;;;;;6.25;59.36;96730.56;5070440;28;20277;-80
2023/04/07 04:10:49;;;;;;;15.53;9.70;;;;;;;6.22;58.18;96723.78;5070312;28;20195;-81
2023/04/07 04:13:16;;;;;;;15.30;10.47;;;;;;;6.27;58.21;96739.91;5070203;28;20272;-77
2023/04/07 04:15:43;;;;;;;15.47;9.93;;;;;;;6.34;58.42;96737.97;5070656;28;20208;-81
2023/04/07 04:18:14;;;;;;;11.27;8.83;;;;;;;6.14;57.97;96733.47;5070088;28;20186;-83
2023/04/07 04:20:42;;;;;;;16.17;10.27;;;;;;;6.27;58.55;96755.34;5069983;28;20193;-80
2023/04/07 04:23:09;;;;;;;17.37;9.87;;;;;;;6.10;57.96;96737.03;5070061;28;20186;-79
2023/04/07 04:25:38;;;;;;;12.63;9.13;;;;;;;5.93;59.62;96743.66;5053117;28;20207;-83
2023/04/07 04:28:08;;;;;;;13.07;9.20;;;;;;;5.84;59.38;96729.34;5069962;28;20228;-83
2023/04/07 04:30:35;;;;;;;12.33;9.67;;;;;;;5.87;59.81;96742.13;5053265;28;20747;-81
2023/04/07 04:33:03;;;;;;;13.90;9.30;;;;;;;6.04;60.24;96739.81;5070481;28;20194;-84
2023/04/07 04:35:36;;;;;;;19.50;10.50;;;;;;;6.33;59.66;96759.41;5069379;28;20295;-85
2023/04/07 04:38:07;;;;;;;13.97;10.10;;;;;;;6.48;58.51;96753.75;5054271;28;20186;-83
2023/04/07 04:40:36;;;;;;;16.83;10.40;;;;;;;6.47;58.73;96755.50;5069935;28;20200;-82
2023/04/07 04:43:05;;;;;;;19.70;10.87;;;;;;;6.63;58.82;96762.69;5071153;28;20198;-80
2023/04/07 04:45:35;;;;;;;15.93;10.90;;;;;;;6.79;58.46;96763.81;5077825;28;20186;-81
2023/04/07 04:48:03;;;;;;;21.60;13.67;;;;;;;6.89;58.53;96752.31;5079915;28;20232;-85
2023/04/07 04:50:31;;;;;;;16.53;11.20;;;;;;;6.91;58.12;96778.81;5091027;28;20578;-83
2023/04/07 04:53:00;;;;;;;17.47;11.63;;;;;;;6.53;60.08;96763.00;5070531;28;20598;-85
2023/04/07 04:55:27;;;;;;;22.37;12.43;;;;;;;6.87;58.72;96777.25;5052805;28;20230;-82
2023/04/07 04:57:54;;;;;;;22.07;12.33;;;;;;;6.97;59.61;96778.59;5052654;28;20198;-83
2023/04/07 05:00:31;;;;;;;24.60;14.50;;;;;;;7.24;59.09;96775.03;5069327;28;20214;-82
2023/04/07 05:03:03;;;;;;;22.67;14.73;;;;;;;7.31;59.64;96777.34;5069468;28;20390;-82
2023/04/07 05:05:34;;;;;;;19.87;11.80;;;;;;;7.34;59.98;96781.53;5054793;28;20188;-80
2023/04/07 05:08:02;;;;;;;20.23;12.93;;;;;;;7.38;59.47;96770.22;5070471;28;20238;-80
2023/04/07 05:10:38;;;;;;;30.17;14.70;;;;;;;7.42;60.15;96787.22;5070452;28;20191;-84
2023/04/07 05:13:07;;;;;;;19.37;14.23;;;;;;;7.56;59.38;96786.72;5063386;28;20197;-78
2023/04/07 05:15:35;;;;;;;20.60;13.40;;;;;;;7.27;59.75;96739.69;5060274;28;20232;-74
2023/04/07 05:18:06;;;;;;;19.43;12.80;;;;;;;7.52;60.22;96792.91;5069035;28;20224;-78
2023/04/07 05:20:34;;;;;;;18.40;13.23;;;;;;;7.54;59.23;96793.69;5069134;28;20237;-81
2023/04/07 05:23:01;;;;;;;26.50;14.43;;;;;;;7.14;60.38;96728.19;5068934;28;20222;-82
2023/04/07 05:25:32;;;;;;;23.17;13.73;;;;;;;7.55;59.53;96795.34;5069165;28;20199;-77
2023/04/07 05:28:02;;;;;;;24.23;15.23;;;;;;;7.69;59.57;96798.22;5068795;28;20293;-79
2023/04/07 05:30:31;;;;;;;20.67;15.23;;;;;;;7.69;59.16;96801.66;5068805;28;20625;-77
2023/04/07 05:32:58;;;;;;;33.03;15.80;;;;;;;7.90;58.89;96798.25;5068655;28;20294;-79
2023/04/07 05:35:38;;;;;;;19.53;13.30;;;;;;;8.22;57.57;96813.28;5068279;28;20675;-81
2023/04/07 05:38:05;;;;;;;21.43;12.87;;;;;;;8.13;57.06;96774.13;5087162;28;20654;-81
2023/04/07 05:40:32;;;;;;;24.10;14.70;;;;;;;8.40;56.69;96809.16;5086418;28;20588;-79
2023/04/07 05:43:02;;;;;;;15.33;11.13;;;;;;;8.37;55.00;96808.44;5068760;28;20177;-74
2023/04/07 05:45:32;;;;;;;15.57;11.47;;;;;;;8.39;53.69;96812.63;5068498;28;20193;-77
2023/04/07 05:47:59;;;;;;;16.43;11.63;;;;;;;8.29;53.48;96807.91;5068970;28;20272;-81
2023/04/07 05:50:36;;;;;;;19.00;11.23;;;;;;;8.23;54.39;96807.22;5068598;28;20185;-80
2023/04/07 05:53:07;;;;;;;16.47;12.13;;;;;;;8.38;53.46;96818.72;5068008;28;20189;-79
2023/04/07 05:55:35;;;;;;;11.17;9.67;;;;;;;8.41;51.64;96817.75;5067934;28;20220;-80
2023/04/07 05:58:04;;;;;;;13.30;9.90;;;;;;;8.22;52.95;96818.44;5068894;28;20257;-81
2023/04/07 06:00:32;;;;;;;18.53;11.43;;;;;;;8.03;53.69;96788.28;5102982;28;20189;-80
2023/04/07 06:03:08;;;;;;;22.50;11.80;;;;;;;8.11;54.02;96800.00;5068073;28;20230;-77
2023/04/07 06:05:47;;;;;;;16.80;12.47;;;;;;;8.23;54.06;96820.13;5067705;28;20257;-79
2023/04/07 06:08:16;;;;;;;19.20;12.60;;;;;;;7.59;54.13;96786.59;5068228;28;20695;-76
2023/04/07 06:10:45;;;;;;;19.37;13.33;;;;;;;7.61;54.23;96766.75;5067432;28;20241;-76
2023/04/07 06:13:12;;;;;;;39.33;21.23;;;;;;;8.05;53.49;96820.88;5085920;28;20188;-80
2023/04/07 06:15:39;;;;;;;24.77;15.43;;;;;;;8.27;52.68;96830.34;5085824;28;20243;-81
2023/04/07 06:18:06;;;;;;;21.80;15.17;;;;;;;8.47;52.31;96822.66;5085795;28;20585;-83
2023/04/07 06:20:34;;;;;;;20.47;13.27;;;;;;;8.53;51.56;96805.16;5067761;28;20212;-72
2023/04/07 06:23:01;;;;;;;18.20;13.37;;;;;;;8.46;52.30;96805.47;5085628;28;20197;-79
2023/04/07 06:25:28;;;;;;;15.60;10.83;;;;;;;8.66;49.68;96828.72;5067650;28;20201;-81
2023/04/07 06:27:55;;;;;;;17.57;11.07;;;;;;;8.55;50.50;96830.91;5067734;28;20185;-84
2023/04/07 06:30:22;;;;;;;16.53;9.90;;;;;;;8.21;51.09;96775.50;5086072;28;20220;-78
2023/04/07 06:32:51;;;;;;;16.90;10.57;;;;;;;8.68;49.94;96835.50;5067281;28;20211;-79
2023/04/07 06:35:18;;;;;;;18.10;10.57;;;;;;;8.75;50.82;96815.44;5067113;28;20246;-83
2023/04/07 06:37:45;;;;;;;11.77;9.00;;;;;;;8.30;51.57;96835.38;5086310;28;20185;-77
2023/04/07 06:40:12;;;;;;;13.53;9.93;;;;;;;8.66;50.87;96833.88;5085922;28;20299;-81
2023/04/07 06:42:39;;;;;;;16.10;10.90;;;;;;;8.66;50.84;96839.03;5068037;28;20671;-78
2023/04/07 06:45:15;;;;;;;15.73;9.90;;;;;;;8.88;50.98;96845.00;5068582;28;20184;-79
2023/04/07 06:47:42;;;;;;;12.13;9.67;;;;;;;8.65;51.55;96850.28;5086396;28;20199;-77
2023/04/07 06:50:09;;;;;;;14.03;9.30;;;;;;;8.55;51.98;96852.38;5085378;28;20287;-76
2023/04/07 06:52:36;;;;;;;15.60;10.87;;;;;;;8.55;52.26;96849.81;5085516;28;20223;-79
2023/04/07 06:55:03;;;;;;;10.67;8.10;;;;;;;8.03;50.74;96827.81;5067813;28;20846;-77
2023/04/07 06:57:30;;;;;;;17.37;10.50;;;;;;;8.11;52.22;96854.16;5101041;28;20218;-74
2023/04/07 06:59:57;;;;;;;14.03;10.43;;;;;;;8.52;52.21;96834.47;5085877;28;20769;-75
2023/04/07 07:02:25;;;;;;;11.60;9.20;;;;;;;8.22;52.00;96825.34;5050807;28;20660;-78
2023/04/07 07:04:52;;;;;;;16.80;10.97;;;;;;;8.66;52.28;96847.63;5051066;28;20204;-75
2023/04/07 07:07:19;;;;;;;21.13;12.17;;;;;;;8.47;51.86;96776.22;5071387;28;20744;-76
2023/04/07 07:09:46;;;;;;;14.63;10.00;;;;;;;8.76;51.14;96830.00;5070949;28;20184;-76
2023/04/07 07:12:16;;;;;;;13.93;10.30;;;;;;;8.57;51.46;96844.59;5071107;28;20216;-79
2023/04/07 07:14:43;;;;;;;17.67;10.53;;;;;;;8.68;51.26;96840.66;5089514;28;20220;-76
2023/04/07 07:17:10;;;;;;;17.37;10.87;;;;;;;9.03;52.15;96883.94;5074033;28;20228;-80
2023/04/07 07:19:37;;;;;;;16.37;10.83;;;;;;;9.10;51.74;96881.94;5072418;28;20189;-80
2023/04/07 07:22:06;;;;;;;16.83;12.63;;;;;;;8.52;52.56;96856.84;5093103;28;20232;-83
2023/04/07 07:24:33;;;;;;;18.17;10.50;;;;;;;8.66;52.76;96863.13;5074147;28;20193;-77
2023/04/07 07:27:01;;;;;;;15.13;11.03;;;;;;;8.98;52.12;96874.69;5089387;28;20192;-74
2023/04/07 07:29:29;;;;;;;15.97;10.10;;;;;;;9.23;51.93;96854.69;5088686;28;20200;-76
2023/04/07 07:31:56;;;;;;;13.07;9.13;;;;;;;9.53;50.58;96886.94;5088464;28;20185;-75
2023/04/07 07:34:25;;;;;;;11.83;9.43;;;;;;;8.87;52.06;96887.22;5070410;28;20279;-77
2023/04/07 07:36:52;;;;;;;10.77;9.33;;;;;;;8.92;49.69;96867.22;5069912;28;20285;-75
2023/04/07 07:39:20;;;;;;;13.07;8.93;;;;;;;9.16;50.19;96863.59;5070969;28;20191;-79
2023/04/07 07:41:47;;;;;;;11.80;9.50;;;;;;;9.19;49.60;96853.09;5070181;28;20192;-80
2023/04/07 07:44:14;;;;;;;11.27;9.00;;;;;;;8.79;50.58;96819.56;5054251;28;20195;-83
2023/04/07 07:46:41;;;;;;;10.60;8.50;;;;;;;8.76;51.14;96868.72;5070972;28;20604;-80
2023/04/07 07:49:08;;;;;;;12.90;9.93;;;;;;;8.55;51.39;96842.06;5053511;28;20200;-79
2023/04/07 07:51:35;;;;;;;12.03;9.00;;;;;;;8.02;53.09;96796.91;5088669;28;20263;-83
2023/04/07 07:54:03;;;;;;;15.27;9.40;;;;;;;9.10;52.09;96858.69;5069936;28;20214;-83
2023/04/07 07:56:32;;;;;;;16.03;9.53;;;;;;;9.38;51.15;96878.97;5089234;28;20231;-84
2023/04/07 07:58:59;;;;;;;14.13;9.17;;;;;;;8.92;52.12;96875.78;5093541;28;20204;-87
2023/04/07 08:01:26;;;;;;;11.20;8.37;;;;;;;8.53;52.72;96863.69;5056696;28;20196;-84
2023/04/07 08:03:53;;;;;;;13.63;9.40;;;;;;;8.90;52.29;96838.03;5090847;28;20213;-81
2023/04/07 08:06:21;;;;;;;14.70;10.43;;;;;;;9.18;51.53;96828.19;5070866;28;20203;-75
2023/04/07 08:08:49;;;;;;;13.57;8.90;;;;;;;9.35;50.19;96792.13;5071119;28;20279;-83
2023/04/07 08:11:16;;;;;;;10.47;8.40;;;;;;;10.14;49.47;96842.78;5054181;28;20203;-80
2023/04/07 08:13:45;;;;;;;12.40;9.17;;;;;;;9.84;48.36;96812.25;5053698;28;20219;-82
2023/04/07 08:16:12;;;;;;;14.10;9.37;;;;;;;10.64;48.61;96885.19;5052919;28;20246;-79
2023/04/07 08:18:39;;;;;;;15.33;9.97;;;;;;;10.36;47.51;96804.63;5069712;28;20672;-83
2023/04/07 08:21:07;;;;;;;10.23;8.20;;;;;;;10.86;47.62;96875.47;5069361;28;20674;-84
2023/04/07 08:23:34;;;;;;;14.43;9.10;;;;;;;10.32;49.18;96857.44;5087660;28;20272;-80
2023/04/07 08:26:02;;;;;;;14.93;9.47;;;;;;;10.57;49.16;96882.06;5069340;28;20184;-81
2023/04/07 08:28:32;;;;;;;12.43;9.87;;;;;;;9.56;50.82;96881.59;5087524;28;20189;-80
2023/04/07 08:31:04;;;;;;;14.20;11.00;;;;;;;9.49;50.85;96877.63;5088090;28;20235;-84
2023/04/07 08:33:33;;;;;;;10.57;8.53;;;;;;;9.84;49.80;96876.03;5069298;28;20201;-79
2023/04/07 08:36:00;;;;;;;11.17;8.63;;;;;;;10.08;49.86;96871.47;5087835;28;20718;-77
2023/04/07 08:38:27;;;;;;;10.03;7.97;;;;;;;9.43;51.13;96880.47;5069061;28;20193;-80
2023/04/07 08:41:01;;;;;;;14.13;9.27;;;;;;;9.38;51.55;96850.56;5088072;28;20185;-80
2023/04/07 08:43:29;;;;;;;10.00;7.77;;;;;;;9.83;50.52;96867.44;5088504;28;20249;-77
2023/04/07 08:45:57;;;;;;;16.73;9.60;;;;;;;10.06;50.18;96870.72;5087968;28;20212;-78
2023/04/07 08:48:28;;;;;;;13.90;9.27;;;;;;;10.27;49.16;96869.75;5087920;28;20880;-83
2023/04/07 08:50:56;;;;;;;10.10;8.00;;;;;;;9.98;49.52;96852.97;5087421;28;20613;-77
2023/04/07 08:53:30;;;;;;;9.53;8.23;;;;;;;10.13;48.92;96856.63;5069394;28;20275;-76
2023/04/07 08:56:00;;;;;;;13.00;8.27;;;;;;;10.23;48.28;96863.03;5087223;28;20727;-78
2023/04/07 08:58:28;;;;;;;7.47;6.63;;;;;;;9.90;48.63;96864.56;5087509;28;20689;-84
2023/04/07 09:00:55;;;;;;;12.43;9.43;;;;;;;10.17;48.62;96863.34;5069069;28;20217;-79
2023/04/07 09:03:25;;;;;;;14.57;7.67;;;;;;;10.45;48.00;96863.69;5087003;28;20719;-80
2023/04/07 09:05:55;;;;;;;12.70;9.47;;;;;;;10.53;48.46;96862.41;5087204;28;20193;-81
2023/04/07 09:08:22;;;;;;;10.43;7.63;;;;;;;10.81;47.72;96856.72;5086515;28;20660;-80
2023/04/07 09:10:49;;;;;;;13.10;8.63;;;;;;;10.82;46.77;96858.41;5087260;28;20195;-76
2023/04/07 09:13:16;;;;;;;12.33;8.00;;;;;;;10.02;48.01;96864.84;5068597;28;20244;-80
2023/04/07 09:15:43;;;;;;;10.10;7.40;;;;;;;9.97;48.47;96866.81;5086586;28;20211;-82
2023/04/07 09:18:10;;;;;;;9.57;7.90;;;;;;;10.13;48.82;96865.22;5068523;28;20220;-82
2023/04/07 09:20:57;;;;;;;10.87;8.03;;;;;;;9.93;47.99;96861.84;5086665;28;20193;-83
2023/04/07 09:23:31;;;;;;;9.33;7.23;;;;;;;10.10;48.34;96859.34;5087336;28;20207;-83
2023/04/07 09:26:00;;;;;;;11.57;8.67;;;;;;;10.18;47.54;96870.19;5085978;28;20660;-83
2023/04/07 09:28:40;;;;;;;10.23;8.23;;;;;;;10.48;47.04;96868.72;5086019;28;20198;-79
2023/04/07 09:31:07;;;;;;;11.07;8.60;;;;;;;9.93;46.93;96867.03;5067553;28;20190;-81
2023/04/07 09:33:35;;;;;;;11.93;8.93;;;;;;;10.48;46.82;96866.16;5086157;28;20188;-84
2023/04/07 09:36:05;;;;;;;11.80;7.97;;;;;;;10.52;47.65;96865.09;5086309;28;20185;-78
2023/04/07 09:38:36;;;;;;;17.27;9.57;;;;;;;10.69;46.22;96857.34;5085981;28;20228;-82
2023/04/07 09:41:07;;;;;;;12.23;8.63;;;;;;;10.65;45.49;96861.00;5086950;28;20193;-81
2023/04/07 09:43:44;;;;;;;13.57;9.67;;;;;;;10.51;46.26;96832.31;5085967;28;20200;-78
2023/04/07 09:46:19;;;;;;;12.80;8.63;;;;;;;10.48;46.87;96860.97;5068122;28;20197;-82
2023/04/07 09:48:47;;;;;;;9.73;7.70;;;;;;;10.46;46.44;96832.56;5086036;28;20250;-81
2023/04/07 09:51:16;;;;;;;10.90;8.67;;;;;;;10.74;45.84;96850.16;5085793;28;20567;-83
2023/04/07 09:53:48;;;;;;;15.03;10.20;;;;;;;10.87;45.30;96850.41;5086120;28;20591;-81
2023/04/07 09:56:17;;;;;;;14.50;9.97;;;;;;;10.93;45.87;96850.94;5067591;28;20276;-75
2023/04/07 09:58:46;;;;;;;13.00;8.03;;;;;;;10.45;46.30;96848.16;5086084;28;20203;-79
2023/04/07 10:01:15;;;;;;;10.60;8.43;;;;;;;10.67;45.82;96850.56;5085411;28;20186;-79
2023/04/07 10:03:45;;;;;;;14.00;9.80;;;;;;;10.94;45.19;96851.78;5067535;28;20605;-79
2023/04/07 10:06:13;;;;;;;9.93;7.33;;;;;;;10.66;45.07;96857.47;5085584;28;20177;-81
2023/04/07 10:08:42;;;;;;;12.73;8.60;;;;;;;10.58;46.34;96849.25;5085576;28;20220;-78
2023/04/07 10:11:09;;;;;;;15.53;8.77;;;;;;;10.87;45.58;96848.66;5086496;28;20235;-81
2023/04/07 10:13:38;;;;;;;10.93;8.57;;;;;;;11.04;44.65;96856.44;5084927;28;20189;-81
2023/04/07 10:16:07;;;;;;;9.40;7.73;;;;;;;10.86;45.30;96854.72;5085667;28;20204;-79
2023/04/07 10:18:35;;;;;;;10.70;8.13;;;;;;;10.79;45.55;96848.19;5067355;28;20185;-79
2023/04/07 10:21:06;;;;;;;10.97;7.40;;;;;;;10.48;46.05;96869.59;5085151;28;20317;-79
2023/04/07 10:23:47;;;;;;;8.93;7.40;;;;;;;10.24;46.70;96852.59;5085521;28;20259;-81
2023/04/07 10:26:18;;;;;;;10.90;7.47;;;;;;;10.35;45.62;96839.16;5085206;28;20186;-82
2023/04/07 10:28:50;;;;;;;12.90;8.90;;;;;;;10.69;45.46;96835.78;5068543;28;20546;-82
2023/04/07 10:31:18;;;;;;;9.93;7.50;;;;;;;10.90;45.83;96827.75;5085126;28;20189;-84
2023/04/07 10:33:50;;;;;;;10.50;7.60;;;;;;;10.54;46.15;96851.16;5067280;28;20230;-81
2023/04/07 10:36:20;;;;;;;8.97;7.20;;;;;;;10.59;45.15;96822.47;5085485;28;20575;-82
2023/04/07 10:39:06;;;;;;;12.60;8.60;;;;;;;10.78;46.32;96849.09;5085780;28;20596;-80
2023/04/07 10:41:35;;;;;;;14.23;8.27;;;;;;;10.87;45.04;96847.81;5089248;28;20278;-82
2023/04/07 10:44:04;;;;;;;13.80;9.10;;;;;;;11.24;45.22;96839.84;5072448;28;20306;-80
2023/04/07 10:46:47;;;;;;;12.13;8.00;;;;;;;11.04;45.38;96853.84;5091594;28;20250;-75
2023/04/07 10:49:15;;;;;;;8.53;6.03;;;;;;;10.36;46.09;96841.69;5090507;28;20534;-81
2023/04/07 10:52:10;;;;;;;10.90;6.70;;;;;;;10.45;46.15;96848.16;5089186;28;20635;-77
2023/04/07 10:54:38;;;;;;;10.53;6.83;;;;;;;10.27;45.96;96854.22;5089685;28;20196;-75
2023/04/07 10:57:13;;;;;;;8.10;6.57;;;;;;;10.21;46.28;96839.84;5070877;28;20727;-75
2023/04/07 11:00:10;;;;;;;10.67;7.53;;;;;;;10.54;45.84;96864.09;5089342;28;20191;-77
2023/04/07 11:02:39;;;;;;;10.40;7.90;;;;;;;10.76;45.78;96847.53;5089182;28;20736;-76
2023/04/07 11:05:07;;;;;;;11.00;7.50;;;;;;;10.88;45.57;96865.03;5103824;28;20189;-81
2023/04/07 11:07:48;;;;;;;12.63;9.53;;;;;;;11.18;45.57;96858.31;5089263;28;20205;-82
2023/04/07 11:10:17;;;;;;;12.37;8.10;;;;;;;11.06;45.61;96856.34;5088670;28;20194;-81
2023/04/07 11:12:57;;;;;;;10.10;8.10;;;;;;;11.32;45.03;96855.84;5089078;28;20656;-81
2023/04/07 11:15:34;;;;;;;11.23;8.43;;;;;;;11.28;44.73;96867.28;5070760;28;20190;-83
2023/04/07 11:18:17;;;;;;;9.47;7.40;;;;;;;11.06;44.96;96862.38;5088752;28;20235;-77
2023/04/07 11:20:48;;;;;;;10.53;8.30;;;;;;;10.93;45.41;96845.75;5089018;28;20275;-81
2023/04/07 11:23:17;;;;;;;11.57;8.20;;;;;;;11.21;44.95;96853.78;5082276;28;20206;-78
2023/04/07 11:25:46;;;;;;;11.10;8.17;;;;;;;11.10;44.70;96853.53;5074455;28;20559;-78
2023/04/07 11:28:13;;;;;;;9.07;7.97;;;;;;;11.45;44.77;96843.94;5068510;28;20662;-79
2023/04/07 11:30:52;;;;;;;8.03;6.93;;;;;;;11.52;43.75;96852.22;5068418;28;20621;-80
2023/04/07 11:33:22;;;;;;;9.63;7.03;;;;;;;11.69;43.91;96841.81;5068689;28;20201;-74
2023/04/07 11:36:07;;;;;;;9.73;6.93;;;;;;;11.38;44.86;96855.53;5050273;28;20190;-78
2023/04/07 11:38:37;;;;;;;9.87;7.00;;;;;;;11.34;45.51;96865.22;5068790;28;20255;-78
2023/04/07 11:41:14;;;;;;;9.63;7.43;;;;;;;11.02;45.97;96834.94;5050694;28;20285;-77
2023/04/07 11:43:41;;;;;;;11.77;7.77;;;;;;;11.03;46.12;96834.00;5068539;28;20617;-79